createdAt,value
2019-03-16T00:02:01.160Z,2.60
2019-03-16T00:04:29.978Z,2.97
2019-03-16T00:06:58.797Z,4.20
2019-03-16T00:09:27.671Z,2.80
2019-03-16T00:11:56.546Z,3.03
2019-03-16T00:14:25.420Z,2.60
2019-03-16T00:16:54.305Z,2.37
2019-03-16T00:19:23.265Z,3.40
2019-03-16T00:21:52.095Z,2.77
2019-03-16T00:24:21.037Z,2.53
2019-03-16T00:26:49.893Z,2.37
2019-03-16T00:29:18.832Z,2.40
2019-03-16T00:31:47.630Z,2.40
2019-03-16T00:34:16.450Z,2.43
2019-03-16T00:36:45.428Z,2.60
2019-03-16T00:39:14.372Z,2.80
2019-03-16T00:41:43.188Z,2.77
2019-03-16T00:44:12.148Z,2.77
2019-03-16T00:46:40.973Z,2.80
2019-03-16T00:49:09.817Z,2.60
2019-03-16T00:51:38.695Z,2.70
2019-03-16T00:54:07.577Z,2.80
2019-03-16T00:56:36.449Z,2.70
2019-03-16T00:59:05.317Z,3.70
2019-03-16T01:01:34.257Z,4.27
2019-03-16T01:04:03.183Z,2.90
2019-03-16T01:06:32.056Z,5.73
2019-03-16T01:09:01.086Z,4.17
2019-03-16T01:11:29.905Z,2.33
2019-03-16T01:13:58.814Z,4.60
2019-03-16T01:16:27.660Z,3.37
2019-03-16T01:18:56.566Z,4.83
2019-03-16T01:21:25.384Z,5.83
2019-03-16T01:23:54.428Z,20.00
2019-03-16T01:26:23.275Z,14.07
2019-03-16T01:28:52.095Z,21.77
2019-03-16T01:31:20.929Z,12.00
2019-03-16T01:33:49.869Z,13.67
2019-03-16T01:36:18.725Z,7.23
2019-03-16T01:38:47.657Z,5.53
2019-03-16T01:41:16.488Z,5.83
2019-03-16T01:43:45.321Z,5.53
2019-03-16T01:46:14.250Z,5.13
2019-03-16T01:48:43.187Z,3.53
2019-03-16T01:51:13.265Z,2.40
2019-03-16T01:53:42.089Z,2.50
2019-03-16T01:56:10.950Z,2.57
2019-03-16T01:58:39.872Z,2.70
2019-03-16T02:01:09.043Z,2.30
2019-03-16T02:03:37.997Z,3.10
2019-03-16T02:06:06.918Z,2.37
2019-03-16T02:08:35.758Z,2.23
2019-03-16T02:11:04.655Z,2.73
2019-03-16T02:13:33.517Z,2.20
2019-03-16T02:16:10.874Z,2.87
2019-03-16T02:18:32.927Z,2.80
2019-03-16T02:21:01.781Z,2.50
2019-03-16T02:23:30.654Z,2.27
2019-03-16T02:25:59.488Z,2.60
2019-03-16T02:28:28.360Z,2.50
2019-03-16T02:30:57.249Z,3.23
2019-03-16T02:33:26.116Z,2.70
2019-03-16T02:35:54.927Z,2.57
2019-03-16T02:38:23.746Z,3.03
2019-03-16T02:40:52.585Z,2.80
2019-03-16T02:43:21.478Z,2.50
2019-03-16T02:45:50.291Z,2.80
2019-03-16T02:48:19.105Z,3.17
2019-03-16T02:50:48.050Z,2.37
2019-03-16T02:53:16.880Z,2.60
2019-03-16T02:55:45.919Z,2.40
2019-03-16T02:58:14.857Z,2.57
2019-03-16T03:00:43.728Z,2.20
2019-03-16T03:03:28.070Z,2.93
2019-03-16T03:05:43.248Z,3.30
2019-03-16T03:08:12.111Z,2.70
2019-03-16T03:10:40.997Z,2.90
2019-03-16T03:13:13.342Z,2.80
2019-03-16T03:15:40.733Z,2.57
2019-03-16T03:18:09.614Z,2.77
2019-03-16T03:20:38.508Z,2.37
2019-03-16T03:23:07.473Z,2.90
2019-03-16T03:25:36.400Z,2.30
2019-03-16T03:28:05.361Z,2.60
2019-03-16T03:30:34.362Z,2.60
2019-03-16T03:33:03.185Z,2.63
2019-03-16T03:35:32.043Z,2.77
2019-03-16T03:38:00.907Z,3.20
2019-03-16T03:40:29.720Z,2.60
2019-03-16T03:42:58.673Z,2.90
2019-03-16T03:45:27.640Z,2.70
2019-03-16T03:47:56.529Z,2.33
2019-03-16T03:50:25.421Z,2.30
2019-03-16T03:52:54.269Z,3.07
2019-03-16T03:55:23.299Z,2.80
2019-03-16T03:57:52.198Z,2.83
2019-03-16T04:00:21.156Z,2.33
2019-03-16T04:02:50.101Z,2.70
2019-03-16T04:05:19.082Z,2.83
2019-03-16T04:07:47.997Z,3.10
2019-03-16T04:10:16.998Z,3.10
2019-03-16T04:12:45.928Z,3.20
2019-03-16T04:15:15.102Z,3.27
2019-03-16T04:17:44.041Z,2.40
2019-03-16T04:20:13.192Z,3.03
2019-03-16T04:22:42.152Z,2.77
2019-03-16T04:25:11.298Z,2.97
2019-03-16T04:27:40.219Z,3.10
2019-03-16T04:30:09.171Z,2.47
2019-03-16T04:32:38.194Z,2.60
2019-03-16T04:35:07.067Z,2.80
2019-03-16T04:37:35.953Z,3.00
2019-03-16T04:40:05.224Z,2.50
2019-03-16T04:42:34.091Z,2.63
2019-03-16T04:45:02.884Z,2.40
2019-03-16T04:47:31.728Z,2.90
2019-03-16T04:50:00.592Z,2.63
2019-03-16T04:52:29.450Z,2.63
2019-03-16T04:54:58.348Z,3.00
2019-03-16T04:57:27.313Z,3.07
2019-03-16T04:59:56.213Z,3.00
2019-03-16T05:02:25.109Z,2.57
2019-03-16T05:05:06.078Z,2.83
2019-03-16T05:07:46.899Z,2.83
2019-03-16T05:10:27.729Z,3.13
2019-03-16T05:13:08.980Z,2.73
2019-03-16T05:15:51.066Z,2.77
2019-03-16T05:18:32.585Z,3.23
2019-03-16T05:21:13.552Z,2.63
2019-03-16T05:23:54.409Z,3.37
2019-03-16T05:26:35.037Z,2.70
2019-03-16T05:29:15.740Z,2.60
2019-03-16T05:31:56.625Z,2.70
2019-03-16T05:34:37.575Z,3.40
2019-03-16T05:37:18.451Z,3.67
2019-03-16T05:39:59.238Z,2.63
2019-03-16T05:42:40.141Z,3.20
2019-03-16T05:45:20.944Z,2.50
2019-03-16T05:48:01.777Z,2.80
2019-03-16T05:50:43.095Z,2.80
2019-03-16T05:53:23.602Z,2.90
2019-03-16T05:56:04.459Z,2.97
2019-03-16T05:58:45.524Z,2.77
2019-03-16T06:01:26.627Z,2.73
2019-03-16T06:04:07.453Z,2.87
2019-03-16T06:06:48.272Z,2.50
2019-03-16T06:09:29.165Z,2.50
2019-03-16T06:12:10.169Z,2.37
2019-03-16T06:14:50.916Z,2.30
2019-03-16T06:17:31.573Z,2.43
2019-03-16T06:20:12.308Z,2.70
2019-03-16T06:22:41.128Z,3.20
2019-03-16T06:25:29.254Z,2.67
2019-03-16T06:28:17.298Z,2.50
2019-03-16T06:31:05.317Z,2.53
2019-03-16T06:33:53.394Z,2.63
2019-03-16T06:36:41.445Z,5.00
2019-03-16T06:39:29.517Z,3.75
2019-03-16T06:42:17.593Z,3.40
2019-03-16T06:45:05.216Z,2.97
2019-03-16T06:47:54.736Z,3.40
2019-03-16T06:50:43.116Z,3.17
2019-03-16T06:53:31.163Z,3.50
2019-03-16T06:56:19.292Z,3.70
2019-03-16T06:59:07.383Z,2.73
2019-03-16T07:01:55.494Z,3.20
2019-03-16T07:04:43.615Z,2.90
2019-03-16T07:07:24.233Z,4.33
2019-03-16T07:10:04.845Z,3.87
2019-03-16T07:12:45.643Z,3.63
2019-03-16T07:15:26.433Z,4.93
2019-03-16T07:18:08.737Z,3.13
2019-03-16T07:20:49.263Z,3.70
2019-03-16T07:23:31.633Z,3.40
2019-03-16T07:26:15.070Z,4.60
2019-03-16T07:28:55.243Z,6.47
2019-03-16T07:31:38.204Z,3.60
2019-03-16T07:34:18.823Z,2.43
2019-03-16T07:36:59.555Z,2.83
2019-03-16T07:39:28.794Z,3.60
2019-03-16T07:42:16.932Z,2.87
2019-03-16T07:45:08.601Z,3.27
2019-03-16T07:47:55.126Z,5.00
2019-03-16T07:50:43.308Z,2.83
2019-03-16T07:53:50.971Z,2.83
2019-03-16T07:57:16.142Z,2.80
2019-03-16T08:03:05.079Z,2.53
2019-03-16T08:05:53.170Z,4.50
2019-03-16T08:08:34.268Z,3.00
2019-03-16T08:11:15.228Z,3.63
2019-03-16T08:13:55.991Z,5.83
2019-03-16T08:19:45.158Z,4.47
2019-03-16T08:22:25.878Z,5.47
2019-03-16T08:25:07.331Z,9.53
2019-03-16T08:27:53.978Z,8.00
2019-03-16T08:30:18.987Z,6.53
2019-03-16T08:32:48.042Z,4.90
2019-03-16T08:35:36.188Z,4.70
2019-03-16T08:38:24.323Z,7.33
2019-03-16T08:41:12.474Z,4.13
2019-03-16T08:43:41.522Z,4.00
2019-03-16T08:46:29.733Z,3.23
2019-03-16T08:49:17.930Z,6.10
2019-03-16T08:52:06.113Z,6.00
2019-03-16T08:54:54.407Z,6.77
2019-03-16T08:57:42.472Z,3.67
2019-03-16T09:00:30.654Z,4.43
2019-03-16T09:03:43.583Z,3.98
2019-03-16T09:06:27.950Z,4.33
2019-03-16T09:09:16.114Z,7.57
2019-03-16T09:11:58.298Z,3.80
2019-03-16T09:14:39.466Z,6.20
2019-03-16T09:17:20.382Z,4.00
2019-03-16T09:20:03.815Z,4.90
2019-03-16T09:22:44.684Z,4.43
2019-03-16T09:25:25.298Z,5.40
2019-03-16T09:28:17.816Z,4.10
2019-03-16T09:30:48.782Z,4.60
2019-03-16T09:33:28.181Z,8.10
2019-03-16T09:36:16.389Z,6.10
2019-03-16T09:39:06.297Z,7.90
2019-03-16T09:41:55.119Z,4.83
2019-03-16T09:44:33.860Z,5.17
2019-03-16T09:47:22.453Z,4.27
2019-03-16T09:50:10.926Z,4.40
2019-03-16T09:52:51.961Z,4.00
2019-03-16T09:55:35.037Z,7.30
2019-03-16T09:58:15.329Z,5.60
2019-03-16T10:00:56.013Z,4.17
2019-03-16T10:03:36.772Z,5.37
2019-03-16T10:06:17.552Z,5.60
2019-03-16T10:08:58.358Z,3.97
2019-03-16T10:11:38.911Z,3.77
2019-03-16T10:14:21.414Z,5.60
2019-03-16T10:17:03.404Z,5.63
2019-03-16T10:19:44.161Z,13.67
2019-03-16T10:22:13.162Z,6.37
2019-03-16T10:25:01.280Z,11.90
2019-03-16T10:27:49.427Z,6.70
2019-03-16T10:30:37.585Z,4.50
2019-03-16T10:33:25.662Z,5.10
2019-03-16T10:36:13.781Z,4.70
2019-03-16T10:39:01.845Z,5.17
2019-03-16T10:41:49.982Z,5.00
2019-03-16T10:44:38.115Z,6.77
2019-03-16T10:47:07.502Z,6.67
2019-03-16T10:49:55.574Z,6.10
2019-03-16T10:52:43.626Z,6.40
2019-03-16T10:55:31.349Z,7.03
2019-03-16T10:58:19.547Z,8.97
2019-03-16T11:01:07.829Z,8.43
2019-03-16T11:03:55.936Z,9.70
2019-03-16T11:06:44.053Z,25.63
2019-03-16T11:09:32.252Z,52.23
2019-03-16T11:12:20.374Z,33.13
2019-03-16T11:15:01.246Z,51.80
2019-03-16T11:17:41.721Z,22.30
2019-03-16T11:20:22.949Z,30.73
2019-03-16T11:23:03.436Z,32.90
2019-03-16T11:25:44.151Z,32.30
2019-03-16T11:28:24.602Z,22.47
2019-03-16T11:31:05.328Z,28.53
2019-03-16T11:33:48.210Z,25.10
2019-03-16T11:36:28.806Z,31.77
2019-03-16T11:39:10.733Z,21.82
2019-03-16T11:41:52.041Z,23.90
2019-03-16T11:44:33.400Z,22.20
2019-03-16T11:47:14.212Z,27.23
2019-03-16T11:49:43.165Z,22.48
2019-03-16T11:52:43.503Z,10.23
2019-03-16T11:55:21.165Z,8.37
2019-03-16T11:58:09.314Z,12.73
2019-03-16T12:00:57.495Z,14.53
2019-03-16T12:03:45.670Z,12.10
2019-03-16T12:06:33.783Z,14.27
2019-03-16T12:09:22.098Z,15.40
2019-03-16T12:12:10.385Z,14.37
2019-03-16T12:14:51.683Z,14.73
2019-03-16T12:17:32.767Z,17.40
2019-03-16T12:20:13.560Z,14.43
2019-03-16T12:22:54.594Z,12.50
2019-03-16T12:25:35.500Z,11.83
2019-03-16T12:28:16.293Z,12.47
2019-03-16T12:30:57.104Z,12.63
2019-03-16T12:33:37.963Z,12.43
2019-03-16T12:36:18.809Z,12.27
2019-03-16T12:38:59.502Z,16.43
2019-03-16T12:41:40.372Z,11.40
2019-03-16T12:46:57.502Z,15.67
2019-03-16T12:49:48.789Z,15.87
2019-03-16T12:52:37.019Z,9.37
2019-03-16T12:55:25.252Z,11.50
2019-03-16T12:58:13.436Z,12.00
2019-03-16T13:00:42.434Z,10.77
2019-03-16T13:03:30.610Z,8.90
2019-03-16T13:06:19.253Z,7.23
2019-03-16T13:09:08.757Z,11.87
2019-03-16T13:11:56.805Z,9.10
2019-03-16T13:17:36.746Z,10.97
2019-03-16T13:20:18.080Z,8.57
2019-03-16T13:22:58.814Z,8.27
2019-03-16T13:25:39.514Z,9.13
2019-03-16T13:28:26.979Z,9.50
2019-03-16T13:31:08.395Z,7.60
2019-03-16T13:33:49.939Z,8.37
2019-03-16T13:36:30.368Z,11.57
2019-03-16T13:39:11.355Z,9.83
2019-03-16T13:41:53.629Z,12.40
2019-03-16T13:44:34.704Z,12.80
2019-03-16T13:47:15.892Z,10.07
2019-03-16T13:49:56.348Z,9.80
2019-03-16T13:52:37.165Z,8.67
2019-03-16T13:55:18.331Z,9.57
2019-03-16T13:57:58.897Z,10.17
2019-03-16T14:00:39.580Z,11.20
2019-03-16T14:03:20.664Z,9.97
2019-03-16T14:06:04.288Z,11.87
2019-03-16T14:08:44.883Z,10.97
2019-03-16T14:11:25.322Z,10.20
2019-03-16T14:14:06.156Z,8.53
2019-03-16T14:16:46.782Z,7.07
2019-03-16T14:19:27.546Z,7.20
2019-03-16T14:22:08.259Z,6.33
2019-03-16T14:24:49.708Z,6.93
2019-03-16T14:27:31.128Z,5.10
2019-03-16T14:30:23.919Z,5.07
2019-03-16T14:32:54.234Z,6.13
2019-03-16T14:35:34.906Z,4.13
2019-03-16T14:38:15.707Z,3.43
2019-03-16T14:40:56.597Z,5.37
2019-03-16T14:43:37.334Z,7.27
2019-03-16T14:46:18.217Z,3.57
2019-03-16T14:48:59.033Z,3.23
2019-03-16T14:51:39.535Z,6.43
2019-03-16T14:54:20.771Z,4.00
2019-03-16T14:57:02.211Z,4.93
2019-03-16T14:59:42.853Z,6.87
2019-03-16T15:02:25.294Z,6.33
2019-03-16T15:05:06.017Z,3.70
2019-03-16T15:07:49.532Z,2.50
2019-03-16T15:10:29.422Z,2.43
2019-03-16T15:13:10.057Z,2.60
2019-03-16T15:15:50.958Z,3.50
2019-03-16T15:18:32.154Z,2.50
2019-03-16T15:21:13.337Z,1.90
2019-03-16T15:23:55.419Z,2.30
2019-03-16T15:32:50.696Z,2.10
2019-03-16T15:35:31.593Z,2.10
2019-03-16T15:38:12.474Z,2.50
2019-03-16T15:40:54.048Z,2.20
2019-03-16T15:43:22.998Z,1.50
2019-03-16T15:46:11.121Z,2.40
2019-03-16T15:48:59.282Z,2.37
2019-03-16T15:51:47.509Z,1.90
2019-03-16T15:54:35.760Z,2.03
2019-03-16T16:00:37.496Z,2.10
2019-03-16T16:03:09.094Z,1.77
2019-03-16T16:05:56.633Z,1.97
2019-03-16T16:08:44.718Z,1.87
2019-03-16T16:11:33.341Z,1.73
2019-03-16T16:14:02.463Z,1.90
2019-03-16T16:16:52.190Z,1.73
2019-03-16T16:19:40.464Z,1.80
2019-03-16T16:25:36.075Z,2.40
2019-03-16T16:28:24.167Z,2.47
2019-03-16T16:31:35.074Z,2.53
2019-03-16T16:34:42.724Z,2.70
2019-03-16T16:37:31.260Z,2.10
2019-03-16T16:40:19.361Z,3.53
2019-03-16T16:43:07.551Z,3.23
2019-03-16T16:45:55.744Z,5.17
2019-03-16T16:49:03.343Z,4.67
2019-03-16T16:51:53.548Z,5.70
2019-03-16T16:54:41.721Z,5.10
2019-03-16T16:57:49.113Z,7.47
2019-03-16T17:00:37.302Z,3.63
2019-03-16T17:03:25.342Z,7.87
2019-03-16T17:06:13.582Z,5.10
2019-03-16T17:08:55.166Z,7.80
2019-03-16T17:11:33.083Z,3.07
2019-03-16T17:14:21.278Z,3.70
2019-03-16T17:17:09.436Z,7.13
2019-03-16T17:22:57.255Z,4.63
2019-03-16T17:28:19.987Z,3.07
2019-03-16T17:31:10.192Z,3.53
2019-03-16T17:37:08.936Z,4.87
2019-03-16T17:39:57.124Z,5.07
2019-03-16T17:42:45.252Z,5.77
2019-03-16T17:45:33.354Z,3.03
2019-03-16T17:48:21.550Z,5.33
2019-03-16T17:51:29.841Z,7.03
2019-03-16T17:54:18.348Z,3.80
2019-03-16T17:57:06.519Z,3.87
2019-03-16T17:59:54.622Z,2.90
2019-03-16T18:02:51.335Z,4.20
2019-03-16T18:05:33.016Z,4.53
2019-03-16T18:08:21.301Z,2.43
2019-03-16T18:11:09.509Z,3.07
2019-03-16T18:13:57.788Z,4.83
2019-03-16T18:16:58.551Z,3.13
2019-03-16T18:22:31.503Z,3.73
2019-03-16T18:25:12.913Z,3.97
2019-03-16T18:28:21.653Z,8.80
2019-03-16T18:31:09.860Z,8.67
2019-03-16T18:33:58.117Z,3.83
2019-03-16T18:36:46.268Z,3.60
2019-03-16T18:39:34.501Z,3.23
2019-03-16T18:42:22.766Z,2.70
2019-03-16T18:45:11.905Z,3.23
2019-03-16T18:48:00.097Z,2.43
2019-03-16T18:50:48.270Z,2.60
2019-03-16T18:53:36.406Z,2.97
2019-03-16T18:56:24.493Z,2.83
2019-03-16T18:59:12.614Z,3.20
2019-03-16T19:02:00.817Z,3.13
2019-03-16T19:04:48.939Z,2.57
2019-03-16T19:07:37.070Z,2.73
2019-03-16T19:10:25.202Z,3.07
2019-03-16T19:13:13.296Z,4.80
2019-03-16T19:16:01.361Z,3.67
2019-03-16T19:18:49.470Z,3.90
2019-03-16T19:21:18.379Z,4.50
2019-03-16T19:23:59.734Z,4.63
2019-03-16T19:26:41.058Z,6.20
2019-03-16T19:29:22.008Z,3.03
2019-03-16T19:32:03.050Z,3.60
2019-03-16T19:34:44.249Z,4.70
2019-03-16T19:37:13.308Z,4.40
2019-03-16T19:40:01.446Z,4.20
2019-03-16T19:42:30.493Z,3.93
2019-03-16T19:44:59.517Z,5.07
2019-03-16T19:47:30.513Z,3.17
2019-03-16T19:49:59.664Z,4.50
2019-03-16T19:52:28.515Z,3.10
2019-03-16T19:54:57.694Z,2.97
2019-03-16T19:57:26.654Z,3.20
2019-03-16T19:59:55.587Z,3.50
2019-03-16T20:02:24.397Z,3.90
2019-03-16T20:04:53.447Z,4.03
2019-03-16T20:07:23.174Z,3.53
2019-03-16T20:09:52.221Z,4.20
2019-03-16T20:12:23.379Z,4.33
2019-03-16T20:14:52.347Z,5.37
2019-03-16T20:17:21.317Z,7.00
2019-03-16T20:19:50.249Z,8.20
2019-03-16T20:22:19.050Z,5.60
2019-03-16T20:24:51.344Z,8.73
2019-03-16T20:27:23.133Z,7.90
2019-03-16T20:29:52.161Z,4.53
2019-03-16T20:32:20.989Z,4.27
2019-03-16T20:34:52.124Z,5.43
2019-03-16T20:37:21.065Z,3.53
2019-03-16T20:39:49.910Z,3.87
2019-03-16T20:42:18.745Z,3.97
2019-03-16T20:44:49.326Z,4.00
2019-03-16T20:47:18.326Z,4.70
2019-03-16T20:49:47.232Z,4.40
2019-03-16T20:52:16.100Z,4.60
2019-03-16T20:54:45.001Z,4.50
2019-03-16T20:57:14.003Z,4.50
2019-03-16T20:59:42.937Z,4.60
2019-03-16T21:02:11.923Z,6.97
2019-03-16T21:04:40.911Z,5.30
2019-03-16T21:07:09.827Z,6.13
2019-03-16T21:09:38.762Z,8.37
2019-03-16T21:12:07.650Z,4.80
2019-03-16T21:14:36.606Z,5.10
2019-03-16T21:17:05.694Z,5.73
2019-03-16T21:19:34.590Z,6.80
2019-03-16T21:22:03.479Z,4.60
2019-03-16T21:24:32.456Z,5.70
2019-03-16T21:27:01.335Z,4.63
2019-03-16T21:29:30.367Z,5.63
2019-03-16T21:31:59.292Z,5.70
2019-03-16T21:34:28.339Z,5.70
2019-03-16T21:36:57.247Z,5.17
2019-03-16T21:39:26.234Z,8.07
2019-03-16T21:41:55.138Z,6.93
2019-03-16T21:44:24.017Z,6.93
2019-03-16T21:46:54.051Z,9.17
2019-03-16T21:49:23.065Z,7.20
2019-03-16T21:51:52.060Z,7.13
2019-03-16T21:54:23.156Z,14.83
2019-03-16T21:56:52.277Z,21.83
2019-03-16T21:59:21.197Z,35.47
2019-03-16T22:01:50.162Z,7.97
2019-03-16T22:04:19.053Z,8.87
2019-03-16T22:06:47.989Z,9.37
2019-03-16T22:09:16.810Z,17.53
2019-03-16T22:11:45.721Z,11.33
2019-03-16T22:14:14.547Z,8.43
2019-03-16T22:16:43.431Z,11.50
2019-03-16T22:19:12.271Z,16.37
2019-03-16T22:21:41.944Z,5.20
2019-03-16T22:24:10.768Z,7.93
2019-03-16T22:26:39.821Z,8.63
2019-03-16T22:29:08.724Z,9.00
2019-03-16T22:31:37.597Z,7.13
2019-03-16T22:34:06.457Z,4.77
2019-03-16T22:36:35.285Z,10.73
2019-03-16T22:39:07.014Z,6.20
2019-03-16T22:41:35.973Z,6.77
2019-03-16T22:44:04.984Z,9.80
2019-03-16T22:46:33.875Z,7.03
2019-03-16T22:49:02.723Z,10.67
2019-03-16T22:51:31.692Z,8.37
2019-03-16T22:54:01.785Z,8.70
2019-03-16T22:56:30.618Z,7.03
2019-03-16T22:58:59.568Z,9.00
2019-03-16T23:01:28.564Z,9.27
2019-03-16T23:04:06.200Z,6.07
2019-03-16T23:06:28.075Z,4.93
2019-03-16T23:08:56.969Z,7.10
2019-03-16T23:11:25.889Z,5.90
2019-03-16T23:13:54.745Z,8.17
2019-03-16T23:16:23.720Z,4.77
2019-03-16T23:18:52.729Z,5.00
2019-03-16T23:21:21.638Z,4.73
2019-03-16T23:23:50.528Z,4.93
2019-03-16T23:26:19.328Z,3.90
2019-03-16T23:28:48.208Z,4.40
2019-03-16T23:31:17.013Z,5.17
2019-03-16T23:33:45.843Z,5.67
2019-03-16T23:36:14.653Z,5.20
2019-03-16T23:38:43.507Z,4.20
2019-03-16T23:41:12.365Z,7.23
2019-03-16T23:43:41.293Z,3.60
2019-03-16T23:46:10.093Z,4.83
2019-03-16T23:48:38.947Z,7.60
2019-03-16T23:51:07.834Z,5.83
2019-03-16T23:53:36.702Z,6.80
2019-03-16T23:56:05.544Z,5.30
2019-03-16T23:58:34.335Z,6.80
